Huvudsida
METAR-TAF:

METAR-TAF

Flygplatser :

Notoddens flygplats. Tuven

Notoddens, Norge

latitud: 59-34N, longitud: 009-13E, höjd: 19 m

Aktuellt väderrapport

Denna rapport gjordes för 5 timmar och 53 minuter sedan, klockan 16:50 UTC
Vind 9 kt från väst
Temperatur 20°C
Fuktighet 40%
Tryck 1013 hPa
Sikt 10 km eller mer
Inga moln under 1 500 m eller inga cumulonimbus

METAR: ENNO 201650Z 28009KT CAVOK 20/06 Q1013

Tid: 00:43 (22:43 UTC)

Väderprognos

Denna rapport gjordes för 14 timmar och 43 minuter sedan, klockan 08:00 UTC
Prognos gäller från 20 kl. 09 UTC till 20 kl. 17 UTC
Vind 12 kt från väst/nordväst
Sikt 10 km eller mer
Få moln på en höjd av 4000 ft
Spridda moln på en höjd av 6000 ft

TAF: ENNO 200800Z 2009/2017 29012KT 9999 FEW040 SCT060

Aktuella väderrapporter och prognoser från 4000 flygplatser (METAR- och TAF-rapporter).

De tillgängliga stationerna syns som gula och röda prickar på kartan.

För musen över prickarna för att se namnen på stationerna.

Klicka sedan för att få väderrapporter och prognoser.

För att ändra kartan: Klicka på de gröna knapparna med ett svart kors på för att zooma in; den gröna knappen med ett streck på för att zooma ut; eller på de gröna pilarna för angränsande kartor.


METAR-TAF: